Albuquerque, NM

12:40 PM MDT on April 19, 2015 (GMT -0600)
Cielito Lindo | | Change Station
CLOSE
Current Station
Personal Weather Station
Location: Albuquerque, NM
Elevation: 5648 ft
Nearby Weather Stations

Elev 5648 ft 35.13 °N, 106.52 °W | Updated 54 seconds ago

Clear
Clear
63.2 °F
Feels Like 63.2 °F
N
3.0
Wind Variable Wind from WSW
Gusts 9.0 mph

Today
High -- | Low -- °F
--% Chance of Precip.
Yesterday
High -- | Low -- °F
Precip. -- in
6:29 AM 7:41 PM
New Moon, 1% visible
Pressure 29.94 in
Visibility 10.0 miles
Clouds Few 6000 ft
Dew Point 21 °F
Humidity 20%
Rainfall 0.00 in
Snow Depth Not available.
UV 10 out of 12
Pollen 9.60 out of 12
Air Quality Not available.
Flu Activity Local Activity
METAR KABQ 191752Z 00000KT 10SM FEW060 16/M05 A3008 RMK AO2 SLP136 T01561050 10161 20067 58002

More Conditions Fewer Conditions

Pressure 29.94 in
Visibility 10.0 miles
Clouds Few 6000 ft
Dew Point 21 °F
Humidity 20%
Rainfall 0.00 in
Snow Depth Not available.
UV 10 out of 12
Pollen 9.60 out of 12
Air Quality Not available.
Flu Activity Local Activity
METAR KABQ 191752Z 00000KT 10SM FEW060 16/M05 A3008 RMK AO2 SLP136 T01561050 10161 20067 58002

More Conditions Fewer Conditions

10-Day Weather Forecast

Almanac

Astronomy

Apr. 19, 2015 Rise Set
Actual Time
Civil Twilight
Nautical Twilight
Astronomical Twilight
Moon
Length of Visible Light
Length of Day
Tomorrow will be .
, % of the Moon is Illuminated

Today's Extremes

State Highs State Lows

Community

WunderPhotos

Upload Photos

1,814,908 photos uploaded!

WunderBlogs® & News

Nearby

Air Quality

  Air Quality AQ Index Pollutant
Not available.

Snow Depth

Station Depth Elevation

Earthquake Activity

City Distance Mag. Time & Date
Minimum magnitude displayed is 2.5.

Coastal Water Temperatures

Place Temperature

Stations

Nearby Weather Stations

Station Location Temp. Windchill Dew Point Humidity Wind Precip. Elev Updated Type